Terminal Aerodrome Forecast
Issued by NWS Louisville, KY

Home | Current Version | Previous Version | Text Only | Print | Product List | Glossary On
Versions: 1 2 3 4 5 6 7 8 9 10 11 12 13
000
FTUS43 KLMK 011100 RRA
TAFBWG
TAF
KBWG 011141Z 0112/0212 VRB04KT P6SM VCSH BKN025
     FM011500 21008KT 4SM -RA BR OVC009
     FM020100 29004KT 5SM -SHRA BR OVC009
     FM020600 32005KT P6SM BKN015=

USA.gov is the U.S. government's official web portal to all federal, state and local government web resources and services.